Time;durP1;ratioP1;P1;durP2;ratioP2;P2;SDS_P1;SDS_P2;PMS_P1;PMS_P2;Temp;Humidity;BMP_temperature;BMP_pressure;BME280_temperature;BME280_humidity;BME280_pressure;Samples;Min_cycle;Max_cycle;Signal;HPM_P1;HPM_P2
2021/11/20 00:01:14;;;;;;;27.13;14.70;;;7.70;99.90;;;;;;5072137;28;20060;-66
2021/11/20 00:03:45;;;;;;;32.53;16.30;;;7.70;99.90;;;;;;5071632;28;20052;-66
2021/11/20 00:06:13;;;;;;;33.30;15.80;;;7.70;99.90;;;;;;5071133;28;20716;-66
2021/11/20 00:08:40;;;;;;;28.73;15.00;;;7.70;99.90;;;;;;5071557;28;20063;-66
2021/11/20 00:11:13;;;;;;;29.75;16.60;;;7.70;99.90;;;;;;5071275;28;20052;-66
2021/11/20 00:13:42;;;;;;;35.80;18.30;;;7.70;99.90;;;;;;5071564;28;20056;-66
2021/11/20 00:16:10;;;;;;;36.05;16.48;;;7.70;99.90;;;;;;5070755;28;20505;-66
2021/11/20 00:18:39;;;;;;;34.78;17.98;;;7.70;99.90;;;;;;5071446;28;20052;-66
2021/11/20 00:21:10;;;;;;;34.67;17.88;;;7.70;99.90;;;;;;5071379;28;20571;-66
2021/11/20 00:23:40;;;;;;;35.63;16.67;;;7.60;99.90;;;;;;5071158;28;20284;-66
2021/11/20 00:26:09;;;;;;;37.58;18.92;;;7.60;99.90;;;;;;5070657;28;20496;-66
2021/11/20 00:28:53;;;;;;;36.22;17.85;;;7.60;99.90;;;;;;5070666;28;20059;-66
2021/11/20 00:31:21;;;;;;;33.95;18.08;;;7.60;99.90;;;;;;5071185;28;20056;-66
2021/11/20 00:33:49;;;;;;;35.60;17.85;;;7.70;99.90;;;;;;5070872;28;20049;-66
2021/11/20 00:36:17;;;;;;;36.42;18.58;;;7.60;99.90;;;;;;5070518;28;20060;-66
2021/11/20 00:38:46;;;;;;;32.90;16.55;;;7.60;99.90;;;;;;5071100;28;20462;-66
2021/11/20 00:41:15;;;;;;;32.08;15.85;;;7.60;99.90;;;;;;5071031;28;20102;-66
2021/11/20 00:43:45;;;;;;;32.25;15.40;;;7.60;99.90;;;;;;5070863;28;20052;-66
2021/11/20 00:46:13;;;;;;;35.33;17.15;;;7.60;99.90;;;;;;5070220;28;20048;-66
2021/11/20 00:48:41;;;;;;;36.75;17.92;;;7.60;99.90;;;;;;5070853;28;20052;-66
2021/11/20 00:51:11;;;;;;;36.05;17.63;;;7.60;99.90;;;;;;5070866;28;20048;-66
2021/11/20 00:53:39;;;;;;;34.13;16.70;;;7.60;99.90;;;;;;5070548;28;20052;-66
2021/11/20 00:56:08;;;;;;;30.80;15.32;;;7.60;99.90;;;;;;5070170;28;20617;-66
2021/11/20 00:58:36;;;;;;;36.20;16.55;;;7.70;99.90;;;;;;5070674;28;20512;-66
2021/11/20 01:01:10;;;;;;;38.08;18.73;;;7.70;99.90;;;;;;5070281;28;20049;-66
2021/11/20 01:03:38;;;;;;;34.75;17.52;;;7.70;99.90;;;;;;5070409;28;20109;-66
2021/11/20 01:06:06;;;;;;;36.83;18.02;;;7.60;99.90;;;;;;5069923;28;20098;-66
2021/11/20 01:08:37;;;;;;;33.67;16.08;;;7.60;99.90;;;;;;5070528;28;20098;-66
2021/11/20 01:11:09;;;;;;;35.70;16.67;;;7.60;99.90;;;;;;5070579;28;20048;-66
2021/11/20 01:13:37;;;;;;;34.20;17.13;;;7.60;99.90;;;;;;5069933;28;20052;-66
2021/11/20 01:16:08;;;;;;;38.20;17.88;;;7.50;99.90;;;;;;5069957;28;20101;-66
2021/11/20 01:18:35;;;;;;;36.30;18.10;;;7.50;99.90;;;;;;5070408;28;20501;-66
2021/11/20 01:21:04;;;;;;;38.20;16.95;;;7.50;99.90;;;;;;5070475;28;20048;-66
2021/11/20 01:23:34;;;;;;;37.78;18.30;;;7.50;99.90;;;;;;5070077;28;20114;-66
2021/11/20 01:26:01;;;;;;;35.55;17.30;;;7.50;99.90;;;;;;5069397;28;20048;-66
2021/11/20 01:28:33;;;;;;;40.42;19.08;;;7.50;99.90;;;;;;5070124;28;20048;-66
2021/11/20 01:31:04;;;;;;;38.40;18.67;;;7.50;99.90;;;;;;5070646;28;20052;-66
2021/11/20 01:33:31;;;;;;;35.38;17.23;;;7.40;99.90;;;;;;5070333;28;20063;-66
2021/11/20 01:35:58;;;;;;;35.72;17.88;;;7.40;99.90;;;;;;5069508;28;20106;-66
2021/11/20 01:38:25;;;;;;;40.10;19.25;;;7.50;99.90;;;;;;5069704;28;20052;-66
2021/11/20 01:40:53;;;;;;;39.15;19.63;;;7.50;99.90;;;;;;5069707;28;20044;-66
2021/11/20 01:43:21;;;;;;;37.58;17.90;;;7.50;99.90;;;;;;5069801;28;20048;-67
2021/11/20 01:45:58;;;;;;;36.20;17.83;;;7.60;99.90;;;;;;5069211;28;20466;-67
2021/11/20 01:48:54;;;;;;;36.13;18.08;;;7.50;99.90;;;;;;5069938;28;20094;-66
2021/11/20 01:51:25;;;;;;;39.08;18.88;;;7.50;99.90;;;;;;5069827;28;20051;-66
2021/11/20 01:54:00;;;;;;;37.15;17.45;;;7.50;99.90;;;;;;5069635;28;20044;-66
2021/11/20 01:56:34;;;;;;;36.58;17.45;;;7.50;99.90;;;;;;5069326;28;20045;-66
2021/11/20 01:59:07;;;;;;;36.10;17.48;;;7.50;99.90;;;;;;5070367;28;20103;-66
2021/11/20 02:01:43;;;;;;;35.78;19.02;;;7.50;99.90;;;;;;5069636;28;20086;-66
2021/11/20 02:04:16;;;;;;;34.28;17.33;;;7.50;99.90;;;;;;5070001;28;20143;-66
2021/11/20 02:06:52;;;;;;;36.13;17.15;;;7.50;99.90;;;;;;5068986;28;20049;-66
2021/11/20 02:09:24;;;;;;;36.22;17.98;;;7.50;99.90;;;;;;5069486;28;20500;-66
2021/11/20 02:11:55;;;;;;;37.38;17.67;;;7.50;99.90;;;;;;5069197;28;20122;-66
2021/11/20 02:14:25;;;;;;;36.67;18.67;;;7.50;99.90;;;;;;5069640;28;20045;-66
2021/11/20 02:17:02;;;;;;;35.90;18.20;;;7.50;99.90;;;;;;5068971;28;20513;-66
2021/11/20 02:19:33;;;;;;;36.17;17.40;;;7.50;99.90;;;;;;5069387;28;20055;-66
2021/11/20 02:22:05;;;;;;;34.95;17.25;;;7.50;99.90;;;;;;5069439;28;20106;-66
2021/11/20 02:24:31;;;;;;;37.70;18.08;;;7.60;99.90;;;;;;5069694;28;20056;-66
2021/11/20 02:26:58;;;;;;;33.75;18.10;;;7.60;99.90;;;;;;5068531;28;20075;-66
2021/11/20 02:29:26;;;;;;;35.10;16.35;;;7.50;99.90;;;;;;5069296;28;20048;-66
2021/11/20 02:31:58;;;;;;;38.35;17.65;;;7.40;99.90;;;;;;5069194;28;20052;-66
2021/11/20 02:34:30;;;;;;;40.28;17.52;;;7.40;99.90;;;;;;5069077;28;20048;-66
2021/11/20 02:36:57;;;;;;;34.70;15.82;;;7.40;99.90;;;;;;5068508;28;20060;-66
2021/11/20 02:39:26;;;;;;;31.77;16.45;;;7.40;99.90;;;;;;5069290;28;20447;-66
2021/11/20 02:41:57;;;;;;;33.15;15.85;;;7.50;99.90;;;;;;5069064;28;20117;-66
2021/11/20 02:44:25;;;;;;;35.22;17.48;;;7.40;99.90;;;;;;5069150;28;20052;-66
2021/11/20 02:46:59;;;;;;;36.03;17.20;;;7.40;99.90;;;;;;5068167;28;20508;-66
2021/11/20 02:49:26;;;;;;;36.35;17.45;;;7.50;99.90;;;;;;5068453;28;20056;-66
2021/11/20 02:51:56;;;;;;;36.85;16.83;;;7.40;99.90;;;;;;5070540;28;20056;-66
2021/11/20 08:56:01;;;;;;;40.42;18.88;;;7.90;99.90;;;;;;5022301;22;20114;-66
2021/11/20 08:58:28;;;;;;;43.92;18.83;;;7.90;99.90;;;;;;5073834;28;20515;-66
2021/11/20 09:00:58;;;;;;;38.30;18.27;;;7.90;99.90;;;;;;5071910;28;20492;-67
2021/11/20 09:03:29;;;;;;;43.28;18.20;;;8.00;99.90;;;;;;5072282;28;20163;-67
2021/11/20 09:06:15;;;;;;;39.95;18.63;;;8.00;99.90;;;;;;5070309;28;20053;-66
2021/11/20 09:08:47;;;;;;;38.67;17.70;;;8.10;99.90;;;;;;5070552;28;20048;-66
2021/11/20 09:11:20;;;;;;;39.05;18.23;;;8.00;99.90;;;;;;5070702;28;20102;-66
2021/11/20 09:13:51;;;;;;;42.72;18.45;;;8.00;99.90;;;;;;5070449;28;20052;-66
2021/11/20 09:16:21;;;;;;;38.70;17.52;;;8.00;99.90;;;;;;5069334;28;20060;-66
2021/11/20 09:18:48;;;;;;;39.97;18.50;;;8.10;99.90;;;;;;5069153;28;20163;-66
2021/11/20 09:21:16;;;;;;;39.13;17.65;;;8.10;99.90;;;;;;5070020;28;20052;-66
2021/11/20 09:23:45;;;;;;;38.90;18.58;;;8.10;99.90;;;;;;5069394;28;20067;-66
2021/11/20 09:26:12;;;;;;;42.80;19.15;;;8.10;99.90;;;;;;5068946;28;20431;-66
2021/11/20 09:28:41;;;;;;;41.42;18.83;;;8.10;99.90;;;;;;5069565;28;20049;-66
2021/11/20 09:31:10;;;;;;;36.03;17.35;;;8.20;99.90;;;;;;5069916;28;20067;-66
2021/11/20 09:33:38;;;;;;;40.38;17.40;;;8.20;99.90;;;;;;5089354;28;20133;-66
2021/11/20 09:36:07;;;;;;;37.78;18.15;;;8.20;99.90;;;;;;5089195;28;20511;-66
2021/11/20 09:38:34;;;;;;;41.45;16.98;;;8.30;99.90;;;;;;5089549;28;20734;-66
2021/11/20 09:41:05;;;;;;;35.60;16.67;;;8.20;99.90;;;;;;5089915;28;20105;-66
2021/11/20 09:43:35;;;;;;;40.67;17.75;;;8.20;99.90;;;;;;5089742;28;20237;-66
2021/11/20 09:46:11;;;;;;;39.85;17.95;;;8.30;99.90;;;;;;5090174;28;20457;-66
2021/11/20 09:48:41;;;;;;;39.13;16.10;;;8.40;99.90;;;;;;5089660;28;20561;-66
2021/11/20 09:51:15;;;;;;;39.42;18.08;;;8.40;99.90;;;;;;5093033;28;20535;-66
2021/11/20 09:53:43;;;;;;;35.72;17.17;;;8.30;99.90;;;;;;5092751;28;20055;-66
2021/11/20 09:56:15;;;;;;;40.75;18.05;;;8.40;99.90;;;;;;5092527;28;20407;-67
2021/11/20 09:58:46;;;;;;;39.88;18.80;;;8.40;99.90;;;;;;5091278;28;20113;-67
2021/11/20 10:01:30;;;;;;;40.35;16.92;;;8.50;99.90;;;;;;5093951;28;20052;-66
2021/11/20 10:04:15;;;;;;;36.92;16.35;;;8.50;99.90;;;;;;5094623;28;20052;-66
2021/11/20 10:06:45;;;;;;;38.17;16.90;;;8.60;99.90;;;;;;5093006;28;20056;-66
2021/11/20 10:09:24;;;;;;;37.17;17.75;;;8.60;99.90;;;;;;5094666;28;20507;-66
2021/11/20 10:11:56;;;;;;;38.03;17.67;;;8.60;99.90;;;;;;5094431;28;20063;-66
2021/11/20 10:14:32;;;;;;;36.45;17.13;;;8.70;99.90;;;;;;5093864;28;20047;-67
2021/11/20 10:17:11;;;;;;;44.15;17.67;;;8.80;99.90;;;;;;5093968;28;20109;-66
2021/11/20 10:19:41;;;;;;;39.83;17.98;;;8.80;99.90;;;;;;5093861;28;20044;-66
2021/11/20 10:22:16;;;;;;;37.08;16.73;;;8.70;99.90;;;;;;5094267;28;20059;-66
2021/11/20 10:24:52;;;;;;;35.22;16.05;;;8.70;99.90;;;;;;5093554;28;20048;-66
2021/11/20 10:27:44;;;;;;;42.55;18.17;;;8.70;99.90;;;;;;5094329;28;20163;-66
2021/11/20 10:30:29;;;;;;;36.42;16.63;;;8.70;99.90;;;;;;5093944;28;20573;-66
2021/11/20 10:33:05;;;;;;;36.33;16.10;;;8.80;99.90;;;;;;5093647;28;20553;-66
2021/11/20 10:35:41;;;;;;;37.40;17.42;;;8.60;99.90;;;;;;5093086;28;20048;-67
2021/11/20 10:38:13;;;;;;;38.17;18.20;;;8.80;99.90;;;;;;5093256;28;20056;-66
2021/11/20 10:41:01;;;;;;;32.83;16.02;;;9.00;99.90;;;;;;5093717;28;20052;-66
2021/11/20 10:43:33;;;;;;;40.08;17.02;;;9.00;99.90;;;;;;5093645;28;20048;-66
2021/11/20 10:46:11;;;;;;;39.08;16.33;;;8.90;99.90;;;;;;5093953;28;20101;-66
2021/11/20 10:48:42;;;;;;;32.40;16.38;;;8.80;99.90;;;;;;5094430;28;20048;-66
2021/11/20 10:51:33;;;;;;;36.30;17.13;;;8.80;99.90;;;;;;5093591;28;20066;-67
2021/11/20 10:54:39;;;;;;;35.97;16.85;;;8.90;99.90;;;;;;5091195;28;20083;-66
2021/11/20 10:57:11;;;;;;;39.95;18.05;;;8.90;99.90;;;;;;5075326;28;20048;-66
2021/11/20 11:00:06;;;;;;;39.80;17.10;;;8.80;99.90;;;;;;5093478;28;20052;-66
2021/11/20 11:02:53;;;;;;;32.78;15.95;;;8.80;99.90;;;;;;5094039;28;20105;-66
2021/11/20 11:05:47;;;;;;;32.30;16.42;;;8.80;99.90;;;;;;5092973;28;20474;-66
2021/11/20 11:08:28;;;;;;;34.75;16.95;;;8.90;99.90;;;;;;5092563;28;20324;-66
2021/11/20 11:11:00;;;;;;;34.65;16.58;;;8.90;99.90;;;;;;5092643;28;20051;-66
2021/11/20 11:13:38;;;;;;;36.55;17.48;;;9.00;99.90;;;;;;5091458;28;20056;-69
2021/11/20 11:16:24;;;;;;;35.20;16.60;;;8.80;99.90;;;;;;5092663;28;20117;-66
2021/11/20 11:18:56;;;;;;;37.28;17.15;;;9.10;99.90;;;;;;5092864;28;20564;-66
2021/11/20 11:21:42;;;;;;;37.35;17.95;;;9.00;99.90;;;;;;5092820;28;20461;-66
2021/11/20 11:24:42;;;;;;;37.43;18.43;;;8.90;99.90;;;;;;5092456;28;20393;-67
2021/11/20 11:27:13;;;;;;;33.95;16.85;;;8.90;99.90;;;;;;5092723;28;20504;-66
2021/11/20 11:29:50;;;;;;;36.72;17.52;;;9.10;99.90;;;;;;5092438;28;20084;-67
2021/11/20 11:32:18;;;;;;;34.53;16.83;;;9.10;99.90;;;;;;5092823;28;20121;-66
2021/11/20 11:34:50;;;;;;;37.90;17.20;;;9.00;99.90;;;;;;5092618;28;20553;-66
2021/11/20 11:37:42;;;;;;;34.15;17.08;;;9.10;99.90;;;;;;5093876;28;20059;-66
2021/11/20 11:40:30;;;;;;;35.38;17.63;;;9.10;99.90;;;;;;5082895;28;20114;-66
2021/11/20 11:43:02;;;;;;;37.70;18.73;;;9.10;99.90;;;;;;5087126;28;20131;-66
2021/11/20 11:46:16;;;;;;;35.08;16.65;;;9.10;99.90;;;;;;5106773;28;20052;-66
2021/11/20 11:48:57;;;;;;;35.90;18.00;;;9.30;99.90;;;;;;5111511;28;20556;-66
2021/11/20 11:51:36;;;;;;;34.10;16.92;;;9.40;99.90;;;;;;5108199;28;20048;-66
2021/11/20 11:54:22;;;;;;;35.38;17.35;;;9.40;99.90;;;;;;5111104;28;20104;-66
2021/11/20 11:57:07;;;;;;;33.25;16.88;;;9.40;99.90;;;;;;5111120;28;20055;-66
2021/11/20 11:59:51;;;;;;;37.10;17.70;;;9.30;99.90;;;;;;5107017;28;20427;-66
2021/11/20 12:02:21;;;;;;;35.80;17.40;;;9.30;99.90;;;;;;5108379;28;20051;-66
2021/11/20 12:04:50;;;;;;;31.88;16.83;;;9.40;99.90;;;;;;5116725;28;20044;-66
2021/11/20 12:07:47;;;;;;;34.38;16.80;;;9.40;99.90;;;;;;5121708;28;20043;-66
2021/11/20 12:10:47;;;;;;;33.28;17.00;;;9.40;99.90;;;;;;5111470;28;20056;-66
2021/11/20 12:13:26;;;;;;;32.85;17.08;;;9.60;99.90;;;;;;5111158;28;20047;-67
2021/11/20 12:16:07;;;;;;;35.92;17.92;;;9.70;99.90;;;;;;5110822;28;20047;-66
2021/11/20 12:18:49;;;;;;;32.35;17.70;;;9.60;99.90;;;;;;5111360;28;20108;-66
2021/11/20 12:21:23;;;;;;;34.05;16.40;;;9.60;99.90;;;;;;5111671;28;20051;-68
2021/11/20 12:23:54;;;;;;;34.15;17.48;;;9.50;99.90;;;;;;5110229;28;20476;-66
2021/11/20 12:26:31;;;;;;;35.80;18.00;;;9.50;99.90;;;;;;5110571;28;20048;-66
2021/11/20 12:29:21;;;;;;;35.17;17.50;;;9.50;99.90;;;;;;5111008;28;20070;-66
2021/11/20 12:32:21;;;;;;;34.72;17.75;;;9.50;99.90;;;;;;5110985;28;20048;-66
2021/11/20 12:35:06;;;;;;;30.13;16.67;;;9.60;99.90;;;;;;5109763;28;20048;-66
2021/11/20 12:37:55;;;;;;;31.70;16.58;;;9.70;99.90;;;;;;5110922;28;20090;-66
2021/11/20 12:40:41;;;;;;;32.67;16.55;;;9.70;99.90;;;;;;5110609;28;20054;-66
2021/11/20 12:43:38;;;;;;;33.53;17.27;;;9.60;99.90;;;;;;5110188;28;20047;-66
2021/11/20 12:46:15;;;;;;;31.98;16.63;;;9.70;99.90;;;;;;5109853;28;20111;-66
2021/11/20 12:49:07;;;;;;;34.30;16.83;;;9.70;99.90;;;;;;5110366;28;20130;-66
2021/11/20 12:51:51;;;;;;;36.05;17.33;;;9.80;99.90;;;;;;5109723;28;20043;-66
2021/11/20 12:54:27;;;;;;;32.78;17.17;;;9.70;99.90;;;;;;5110148;28;20047;-66
2021/11/20 12:57:10;;;;;;;33.30;17.15;;;9.70;99.90;;;;;;5109422;28;20100;-66
2021/11/20 12:59:44;;;;;;;31.52;16.42;;;9.80;99.90;;;;;;5110376;28;20112;-66
2021/11/20 13:02:23;;;;;;;35.05;16.63;;;9.80;99.90;;;;;;5109701;28;20055;-66
2021/11/20 13:04:52;;;;;;;30.98;15.95;;;9.80;99.90;;;;;;5109615;28;20051;-66
2021/11/20 13:07:22;;;;;;;30.15;16.48;;;9.80;99.90;;;;;;5110136;28;20549;-66
2021/11/20 13:09:53;;;;;;;28.25;15.18;;;9.80;99.90;;;;;;5110207;28;20048;-66
2021/11/20 13:12:26;;;;;;;29.95;15.60;;;9.60;99.90;;;;;;5110024;28;20051;-66
2021/11/20 13:15:20;;;;;;;28.50;14.98;;;9.70;99.90;;;;;;5109335;28;20052;-66
2021/11/20 13:17:56;;;;;;;29.33;14.77;;;9.80;99.90;;;;;;5110026;28;20059;-66
2021/11/20 13:20:26;;;;;;;36.05;15.38;;;9.80;99.90;;;;;;5110544;28;20183;-66
2021/11/20 13:23:08;;;;;;;31.23;15.93;;;9.70;99.90;;;;;;5110779;28;20052;-66
2021/11/20 13:25:46;;;;;;;28.02;14.57;;;9.70;99.90;;;;;;5110091;28;20054;-66
2021/11/20 13:28:14;;;;;;;31.77;16.08;;;9.70;99.90;;;;;;5110541;28;20044;-66
2021/11/20 13:30:43;;;;;;;27.17;15.45;;;9.70;99.90;;;;;;5110578;28;20048;-66
2021/11/20 13:33:11;;;;;;;33.08;15.60;;;9.60;99.90;;;;;;5110240;28;20078;-66
2021/11/20 13:35:40;;;;;;;33.22;16.27;;;9.60;99.90;;;;;;5112252;28;20047;-67
2021/11/20 13:38:10;;;;;;;27.70;14.45;;;9.60;99.90;;;;;;5112876;28;20485;-66
2021/11/20 13:40:40;;;;;;;29.10;15.35;;;9.60;99.90;;;;;;5110415;28;20088;-66
2021/11/20 13:43:17;;;;;;;32.65;16.20;;;9.60;99.90;;;;;;5110386;28;20051;-66
2021/11/20 13:45:49;;;;;;;29.45;15.50;;;9.60;99.90;;;;;;5108823;28;20059;-66
2021/11/20 13:48:18;;;;;;;29.60;15.20;;;9.50;99.90;;;;;;5109767;28;20051;-66
2021/11/20 13:50:46;;;;;;;31.30;15.68;;;9.50;99.90;;;;;;5109303;28;20487;-66
2021/11/20 13:53:15;;;;;;;28.42;14.40;;;9.50;99.90;;;;;;5109698;28;20052;-66
2021/11/20 13:55:45;;;;;;;33.20;15.90;;;9.50;99.90;;;;;;5109808;28;20115;-66
2021/11/20 13:58:26;;;;;;;32.17;15.38;;;9.50;99.90;;;;;;5109951;28;20056;-67
2021/11/20 14:00:55;;;;;;;30.42;15.52;;;9.60;99.90;;;;;;5110108;28;20063;-66
2021/11/20 14:03:24;;;;;;;25.33;14.60;;;9.50;99.90;;;;;;5109609;28;20047;-66
2021/11/20 14:05:51;;;;;;;33.28;15.77;;;9.50;99.90;;;;;;5109543;28;20560;-66
2021/11/20 14:08:18;;;;;;;26.55;14.90;;;9.50;99.90;;;;;;5109736;28;20457;-66
2021/11/20 14:10:58;;;;;;;39.22;15.18;;;9.50;99.90;;;;;;5109022;28;20478;-66
2021/11/20 14:13:31;;;;;;;27.30;13.80;;;9.50;99.90;;;;;;5109491;28;20051;-66
2021/11/20 14:15:59;;;;;;;27.23;14.52;;;9.50;99.90;;;;;;5108766;28;20052;-66
2021/11/20 14:18:26;;;;;;;27.75;13.82;;;9.50;99.90;;;;;;5110074;28;20507;-66
2021/11/20 14:20:57;;;;;;;30.08;15.27;;;9.50;99.90;;;;;;5109326;28;20055;-66
2021/11/20 14:23:24;;;;;;;34.20;14.90;;;9.40;99.90;;;;;;5109087;28;20101;-66
2021/11/20 14:25:55;;;;;;;33.15;16.08;;;9.40;99.90;;;;;;5108189;28;20052;-66
2021/11/20 14:28:23;;;;;;;29.40;16.00;;;9.40;99.90;;;;;;5109208;28;20039;-66
2021/11/20 14:30:53;;;;;;;32.13;16.73;;;9.40;99.90;;;;;;5109102;28;20069;-66
2021/11/20 14:33:27;;;;;;;30.65;15.60;;;9.40;99.90;;;;;;5109089;28;20047;-66
2021/11/20 14:35:56;;;;;;;32.13;17.00;;;9.40;99.90;;;;;;5108587;28;20051;-66
2021/11/20 14:38:23;;;;;;;30.40;17.25;;;9.30;99.90;;;;;;5109979;28;20507;-66
2021/11/20 14:40:52;;;;;;;33.78;16.73;;;9.30;99.90;;;;;;5110267;28;20052;-66
2021/11/20 14:43:22;;;;;;;32.13;17.17;;;9.30;99.90;;;;;;5110485;28;20093;-66
2021/11/20 14:45:49;;;;;;;32.08;17.92;;;9.20;99.90;;;;;;5110140;28;20055;-66
2021/11/20 14:48:23;;;;;;;36.13;18.30;;;9.20;99.90;;;;;;5111888;28;20096;-66
2021/11/20 14:50:51;;;;;;;32.55;16.95;;;9.20;99.90;;;;;;5114356;28;20483;-66
2021/11/20 14:53:20;;;;;;;26.98;15.00;;;9.20;99.90;;;;;;5113406;28;20051;-66
2021/11/20 14:55:49;;;;;;;32.83;15.80;;;9.20;99.90;;;;;;5186152;22;20467;-68
2021/11/20 14:58:18;;;;;;;32.70;15.75;;;9.20;99.90;;;;;;5053270;28;20052;-68
2021/11/20 15:00:47;;;;;;;30.33;15.68;;;9.20;99.90;;;;;;5053375;28;20110;-69
2021/11/20 15:03:14;;;;;;;34.47;17.17;;;9.30;99.90;;;;;;5053152;28;20049;-68
2021/11/20 15:05:43;;;;;;;29.65;15.90;;;9.30;99.90;;;;;;5053089;28;20053;-67
2021/11/20 15:08:10;;;;;;;26.05;13.70;;;9.20;99.90;;;;;;5052462;28;20566;-68
2021/11/20 15:10:37;;;;;;;24.67;13.45;;;9.20;99.90;;;;;;5052999;28;20052;-68
2021/11/20 15:13:04;;;;;;;30.35;15.23;;;9.30;99.90;;;;;;5052869;28;20103;-68
2021/11/20 15:15:32;;;;;;;32.53;15.05;;;9.30;99.90;;;;;;5052795;28;20088;-68
2021/11/20 15:17:59;;;;;;;28.20;14.77;;;9.20;99.90;;;;;;5052942;28;20057;-67
2021/11/20 15:20:27;;;;;;;28.75;15.43;;;9.20;99.90;;;;;;5053301;28;20052;-67
2021/11/20 15:22:55;;;;;;;28.42;15.10;;;9.20;99.90;;;;;;5052540;28;20056;-68
2021/11/20 15:25:22;;;;;;;30.02;15.07;;;9.20;99.90;;;;;;5051939;28;20460;-67
2021/11/20 15:27:49;;;;;;;30.95;16.85;;;9.20;99.90;;;;;;5052357;28;20103;-68
2021/11/20 15:30:17;;;;;;;29.63;16.48;;;9.20;99.90;;;;;;5052407;28;20045;-68
2021/11/20 15:32:45;;;;;;;32.33;16.35;;;9.10;99.90;;;;;;5052539;28;20048;-68
2021/11/20 15:35:12;;;;;;;30.42;15.75;;;9.20;99.90;;;;;;5051796;28;20045;-69
2021/11/20 15:37:40;;;;;;;23.48;13.18;;;9.10;99.90;;;;;;5052348;28;20560;-69
2021/11/20 15:40:10;;;;;;;21.45;13.02;;;9.10;99.90;;;;;;5051667;28;20056;-67
2021/11/20 15:42:38;;;;;;;23.85;13.25;;;9.10;99.90;;;;;;5052854;28;20108;-68
2021/11/20 15:45:06;;;;;;;22.45;12.20;;;9.10;99.90;;;;;;5051696;28;20053;-68
2021/11/20 15:47:34;;;;;;;26.13;12.43;;;9.10;99.90;;;;;;5052563;28;20060;-68
2021/11/20 15:50:02;;;;;;;19.52;11.45;;;9.00;99.90;;;;;;5052107;28;20098;-68
2021/11/20 15:52:29;;;;;;;19.73;11.30;;;9.00;99.90;;;;;;5051938;28;20409;-67
2021/11/20 15:54:56;;;;;;;22.40;13.23;;;9.00;99.90;;;;;;5051445;28;20100;-68
2021/11/20 15:57:24;;;;;;;24.17;12.45;;;9.00;99.90;;;;;;5051996;28;20631;-68
2021/11/20 15:59:51;;;;;;;23.00;11.57;;;9.00;99.90;;;;;;5052178;28;20048;-67
2021/11/20 16:02:18;;;;;;;18.55;10.80;;;9.00;99.90;;;;;;5053279;28;20048;-68
2021/11/20 16:04:47;;;;;;;22.13;11.65;;;8.90;99.90;;;;;;5053223;28;20504;-68
2021/11/20 16:07:14;;;;;;;20.77;12.18;;;8.90;99.90;;;;;;5052180;28;20053;-69
2021/11/20 16:09:42;;;;;;;21.10;12.38;;;9.00;99.90;;;;;;5051707;28;20045;-68
2021/11/20 16:12:10;;;;;;;22.15;13.05;;;8.90;99.90;;;;;;5051669;28;20057;-67
2021/11/20 16:14:39;;;;;;;26.05;12.88;;;9.10;99.90;;;;;;5052464;28;20092;-70
2021/11/20 16:17:06;;;;;;;24.00;13.00;;;9.00;99.90;;;;;;5051413;28;20469;-69
2021/11/20 16:19:42;;;;;;;22.45;11.65;;;9.00;99.90;;;;;;5051603;28;20053;-70
2021/11/20 16:22:11;;;;;;;23.48;12.95;;;9.00;99.90;;;;;;5051483;28;20063;-69
2021/11/20 16:24:40;;;;;;;22.27;12.88;;;8.90;99.90;;;;;;5051745;28;20420;-70
2021/11/20 16:27:07;;;;;;;22.55;12.60;;;8.90;99.90;;;;;;5051568;28;20067;-69
2021/11/20 16:29:34;;;;;;;20.95;11.85;;;8.90;99.90;;;;;;5051662;28;20048;-70
2021/11/20 16:32:03;;;;;;;23.20;13.68;;;8.90;99.90;;;;;;5051788;28;20052;-69
2021/11/20 16:34:31;;;;;;;22.95;13.75;;;8.90;99.90;;;;;;5051472;28;20056;-69
2021/11/20 16:36:58;;;;;;;25.60;13.60;;;8.90;99.90;;;;;;5053266;28;20083;-69
2021/11/20 16:39:25;;;;;;;25.67;14.43;;;8.90;99.90;;;;;;5051143;28;20405;-69
2021/11/20 16:41:52;;;;;;;23.10;13.30;;;8.90;99.90;;;;;;5051551;28;20413;-68
2021/11/20 16:44:20;;;;;;;24.60;14.15;;;8.90;99.90;;;;;;5051096;28;20045;-69
2021/11/20 16:46:49;;;;;;;25.70;13.38;;;8.80;99.90;;;;;;5050912;28;20510;-69
2021/11/20 16:49:22;;;;;;;25.25;13.32;;;8.80;99.90;;;;;;5051244;28;20053;-69
2021/11/20 16:54:35;;;;;;;27.67;14.23;;;8.90;99.90;;;;;;5051157;28;20052;-69
2021/11/20 16:57:02;;;;;;;29.15;14.63;;;8.90;99.90;;;;;;5051189;28;20060;-72
2021/11/20 16:59:29;;;;;;;25.15;13.63;;;8.90;99.90;;;;;;5051601;28;20103;-68
2021/11/20 17:01:57;;;;;;;27.42;15.30;;;8.90;99.90;;;;;;5051636;28;20100;-70
2021/11/20 17:04:27;;;;;;;26.42;14.57;;;8.90;99.90;;;;;;5052278;28;20059;-69
2021/11/20 17:06:54;;;;;;;29.80;15.25;;;8.90;99.90;;;;;;5051657;28;20053;-69
2021/11/20 17:09:21;;;;;;;30.45;15.77;;;8.90;99.90;;;;;;5051982;28;20075;-68
2021/11/20 17:11:50;;;;;;;29.83;16.38;;;8.80;99.90;;;;;;5051500;28;20049;-68
2021/11/20 17:14:17;;;;;;;29.17;15.65;;;8.80;99.90;;;;;;5051794;28;20280;-67
2021/11/20 17:16:45;;;;;;;31.70;16.10;;;8.80;99.90;;;;;;5052234;28;20053;-69
2021/11/20 17:19:12;;;;;;;30.90;16.00;;;8.80;99.90;;;;;;5053369;28;20061;-68
2021/11/20 17:21:41;;;;;;;28.75;15.38;;;8.70;99.90;;;;;;5054541;28;20177;-69
2021/11/20 17:24:09;;;;;;;27.90;14.30;;;8.70;99.90;;;;;;5054306;28;20528;-68
2021/11/20 17:26:36;;;;;;;33.67;15.93;;;8.70;99.90;;;;;;5054863;28;20053;-69
2021/11/20 17:29:06;;;;;;;28.30;16.35;;;8.70;99.90;;;;;;5054034;28;20053;-69
2021/11/20 17:31:34;;;;;;;28.33;15.75;;;8.70;99.90;;;;;;5052755;28;20111;-69
2021/11/20 17:34:01;;;;;;;29.73;16.13;;;8.70;99.90;;;;;;5051521;28;20476;-69
2021/11/20 17:36:29;;;;;;;29.85;16.02;;;8.70;99.90;;;;;;5051123;28;20056;-67
2021/11/20 17:38:58;;;;;;;27.40;14.75;;;8.70;99.90;;;;;;5051653;28;20052;-69
2021/11/20 17:41:25;;;;;;;31.75;15.63;;;8.70;99.90;;;;;;5051203;28;20179;-68
2021/11/20 17:43:52;;;;;;;28.50;15.00;;;8.60;99.90;;;;;;5051528;28;20053;-69
2021/11/20 17:46:19;;;;;;;28.65;16.10;;;8.60;99.90;;;;;;5055732;28;20049;-70
2021/11/20 17:48:46;;;;;;;31.30;16.13;;;8.60;99.90;;;;;;5067794;28;20048;-69
2021/11/20 17:51:14;;;;;;;29.65;15.10;;;8.60;99.90;;;;;;5066313;28;20072;-69
2021/11/20 17:53:41;;;;;;;29.25;16.13;;;8.60;99.90;;;;;;5052103;28;20052;-67
2021/11/20 17:56:10;;;;;;;31.60;15.45;;;8.60;99.90;;;;;;5051410;28;20057;-67
2021/11/20 17:58:37;;;;;;;30.17;15.70;;;8.50;99.90;;;;;;5051950;28;20053;-67
2021/11/20 18:01:05;;;;;;;30.35;14.77;;;8.50;99.90;;;;;;5051518;28;20398;-69
2021/11/20 18:03:33;;;;;;;30.17;15.15;;;8.50;99.90;;;;;;5050650;28;20224;-67
2021/11/20 18:06:00;;;;;;;28.65;15.07;;;8.50;99.90;;;;;;5050565;28;20045;-67
2021/11/20 18:08:27;;;;;;;29.38;14.98;;;8.50;99.90;;;;;;5050481;28;20104;-69
2021/11/20 18:10:54;;;;;;;28.85;16.27;;;8.50;99.90;;;;;;5050857;28;20053;-67
2021/11/20 18:13:23;;;;;;;33.38;17.20;;;8.50;99.90;;;;;;5050828;28;20104;-67
2021/11/20 18:15:50;;;;;;;31.30;15.60;;;8.40;99.90;;;;;;5050991;28;20052;-70
2021/11/20 18:18:19;;;;;;;29.67;15.65;;;8.40;99.90;;;;;;5051159;28;20049;-67
2021/11/20 18:20:47;;;;;;;30.70;15.80;;;8.40;99.90;;;;;;5050574;28;20115;-67
2021/11/20 18:23:15;;;;;;;33.33;14.90;;;8.40;99.90;;;;;;5054492;28;20460;-69
2021/11/20 18:25:43;;;;;;;32.80;15.88;;;8.40;99.90;;;;;;5053777;28;20064;-67
2021/11/20 18:28:11;;;;;;;32.47;17.25;;;8.40;99.90;;;;;;5053884;28;20095;-71
2021/11/20 18:30:41;;;;;;;28.67;15.52;;;8.40;99.90;;;;;;5054192;28;20052;-67
2021/11/20 18:33:08;;;;;;;29.27;15.98;;;8.40;99.90;;;;;;5054463;28;20127;-66
2021/11/20 18:35:35;;;;;;;28.88;14.70;;;8.40;99.90;;;;;;5054450;28;20045;-66
2021/11/20 18:38:02;;;;;;;32.17;15.80;;;8.40;99.90;;;;;;5054965;28;20056;-68
2021/11/20 18:40:30;;;;;;;28.83;14.63;;;8.40;99.90;;;;;;5054943;28;20128;-68
2021/11/20 18:42:57;;;;;;;27.70;14.95;;;8.30;99.90;;;;;;5054820;28;20052;-67
2021/11/20 18:45:24;;;;;;;23.55;13.55;;;8.40;99.90;;;;;;5053345;28;20048;-66
2021/11/20 18:47:55;;;;;;;27.90;14.25;;;8.40;99.90;;;;;;5054021;28;20456;-67
2021/11/20 18:50:22;;;;;;;33.00;15.13;;;8.30;99.90;;;;;;5053800;28;20075;-67
2021/11/20 18:52:49;;;;;;;29.80;14.73;;;8.30;99.90;;;;;;5053313;28;20504;-67
2021/11/20 18:55:17;;;;;;;27.33;14.82;;;8.30;99.90;;;;;;5053319;28;20053;-67
2021/11/20 18:57:44;;;;;;;31.65;16.42;;;8.30;99.90;;;;;;5053757;28;20104;-67
2021/11/20 19:00:13;;;;;;;27.73;15.48;;;8.30;99.90;;;;;;5053952;28;20045;-67
2021/11/20 19:02:41;;;;;;;31.33;16.55;;;8.30;99.90;;;;;;5055645;28;20420;-68
2021/11/20 19:05:09;;;;;;;29.13;16.40;;;8.30;99.90;;;;;;5052787;28;20063;-68